Time;durP1;ratioP1;P1;durP2;ratioP2;P2;SDS_P1;SDS_P2;PMS_P1;PMS_P2;Temp;Humidity;BMP_temperature;BMP_pressure;BME280_temperature;BME280_humidity;BME280_pressure;Samples;Min_cycle;Max_cycle;Signal;HPM_P1;HPM_P2
2021/12/10 00:02:30;;;;;;;23.33;15.23;;;-0.60;99.90;-1.00;95543.00;;;;5043553;28;20460;-83
2021/12/10 00:05:27;;;;;;;19.00;13.47;;;-0.60;99.90;-1.00;95541.00;;;;5042911;28;20434;-79
2021/12/10 00:08:17;;;;;;;20.27;14.27;;;-0.70;99.90;-0.90;95533.00;;;;5046675;28;20434;-82
2021/12/10 00:11:12;;;;;;;17.97;12.87;;;-0.50;99.90;-1.00;95534.00;;;;5036474;28;20443;-80
2021/12/10 00:14:03;;;;;;;18.27;13.43;;;-0.50;99.90;-1.00;95531.00;;;;5040518;28;20444;-81
2021/12/10 00:16:54;;;;;;;22.27;12.70;;;-0.60;99.90;-1.00;95539.00;;;;5031012;28;20421;-82
2021/12/10 00:19:49;;;;;;;17.50;12.83;;;-0.80;99.90;-1.00;95531.00;;;;5042167;28;20993;-82
2021/12/10 00:22:48;;;;;;;17.50;13.20;;;-0.70;99.90;-1.30;95536.00;;;;5035433;28;20444;-83
2021/12/10 00:25:46;;;;;;;18.57;12.10;;;-0.70;99.90;-1.20;95530.00;;;;5030405;28;20436;-81
2021/12/10 00:28:39;;;;;;;17.23;12.53;;;-0.70;99.90;-1.30;95532.00;;;;5030114;28;20440;-81
2021/12/10 00:31:45;;;;;;;11.37;9.90;;;-0.80;99.90;-1.30;95529.00;;;;5055966;28;20452;-83
2021/12/10 00:34:41;;;;;;;17.13;12.43;;;-0.70;99.90;-1.30;95534.00;;;;5043430;28;20429;-83
2021/12/10 00:38:07;;;;;;;18.90;13.20;;;-0.60;99.90;-1.20;95530.00;;;;5034267;28;20436;-78
2021/12/10 00:40:56;;;;;;;16.43;13.10;;;-0.80;99.90;-1.20;95532.00;;;;5028305;28;20474;-80
2021/12/10 00:43:47;;;;;;;17.00;14.20;;;-0.80;99.90;-1.20;95525.00;;;;5041164;28;20445;-82
2021/12/10 00:46:37;;;;;;;18.13;12.70;;;-0.80;99.90;-1.20;95529.00;;;;5028496;28;20437;-81
2021/12/10 00:49:26;;;;;;;17.30;13.03;;;-0.70;99.90;-1.20;95523.00;;;;5029625;28;20436;-82
2021/12/10 00:52:17;;;;;;;15.77;11.43;;;-0.70;99.90;-1.10;95530.00;;;;5036628;28;20455;-79
2021/12/10 00:55:07;;;;;;;17.07;11.53;;;-0.90;99.90;-1.20;95520.00;;;;5043849;28;20440;-82
2021/12/10 00:57:57;;;;;;;14.43;11.27;;;-0.90;99.90;-1.20;95523.00;;;;5044169;28;20424;-82
2021/12/10 01:00:52;;;;;;;15.83;10.93;;;-0.90;99.90;-1.20;95521.00;;;;5036363;28;20481;-83
2021/12/10 01:03:47;;;;;;;14.27;10.73;;;-0.80;99.90;-1.40;95516.00;;;;5039142;28;20829;-80
2021/12/10 01:06:37;;;;;;;16.70;11.00;;;-0.90;99.90;-1.40;95521.00;;;;5044103;28;20435;-80
2021/12/10 01:09:31;;;;;;;14.30;11.07;;;-0.70;99.90;-1.50;95501.00;;;;5026950;28;20950;-81
2021/12/10 01:12:24;;;;;;;13.10;10.57;;;-0.90;99.90;-1.50;95523.00;;;;5034936;28;20462;-79
2021/12/10 01:15:37;;;;;;;16.43;11.37;;;-1.00;99.90;-1.50;95522.00;;;;5041920;28;20419;-79
2021/12/10 01:25:03;;;;;;;14.40;9.47;;;-1.10;99.90;-1.50;95530.00;;;;5036959;28;20451;-78
2021/12/10 01:27:53;;;;;;;16.87;10.20;;;-1.10;99.90;-1.60;95532.00;;;;5032827;28;20451;-83
2021/12/10 01:30:42;;;;;;;16.07;10.83;;;-1.00;99.90;-1.60;95531.00;;;;5039034;28;20753;-82
2021/12/10 01:33:33;;;;;;;16.20;12.03;;;-1.20;99.90;-1.50;95531.00;;;;5029423;28;20436;-82
2021/12/10 01:36:23;;;;;;;17.10;11.93;;;-1.20;99.90;-1.60;95523.00;;;;5042088;28;20431;-80
2021/12/10 01:39:21;;;;;;;12.87;9.93;;;-1.10;99.90;-1.50;95526.00;;;;5035437;28;20451;-79
2021/12/10 01:42:18;;;;;;;17.13;11.33;;;-1.10;99.90;-1.70;95531.00;;;;5041272;28;21068;-79
2021/12/10 01:45:18;;;;;;;15.97;11.33;;;-1.20;99.90;-1.70;95525.00;;;;5034284;28;20434;-82
2021/12/10 01:48:11;;;;;;;17.50;11.73;;;-1.30;99.90;-1.80;95517.00;;;;5028836;28;20424;-82
2021/12/10 01:51:02;;;;;;;13.30;9.43;;;-1.20;99.90;-2.10;95515.00;;;;5032529;28;20455;-78
2021/12/10 01:53:56;;;;;;;11.37;8.87;;;-1.30;99.90;-2.20;95520.00;;;;5033557;28;20454;-79
2021/12/10 01:56:46;;;;;;;9.07;7.63;;;-1.40;99.90;-2.50;95510.00;;;;5033859;28;21089;-79
2021/12/10 01:59:37;;;;;;;10.63;8.37;;;-1.60;99.90;-2.70;95518.00;;;;5045443;28;20950;-81
2021/12/10 02:02:30;;;;;;;11.07;8.07;;;-1.60;99.90;-2.60;95517.00;;;;5050033;28;20473;-82
2021/12/10 02:05:20;;;;;;;11.77;7.93;;;-1.80;99.90;-2.60;95507.00;;;;5052579;28;20799;-79
2021/12/10 02:08:11;;;;;;;11.10;7.93;;;-1.90;99.90;-2.70;95512.00;;;;5039780;28;20969;-77
2021/12/10 02:11:00;;;;;;;8.67;7.77;;;-1.90;99.90;-3.00;95510.00;;;;5041051;28;20452;-80
2021/12/10 02:13:50;;;;;;;10.70;6.97;;;-2.10;99.90;-3.00;95513.00;;;;5038840;28;20427;-79
2021/12/10 02:16:40;;;;;;;8.53;7.60;;;-2.20;99.90;-3.30;95499.00;;;;5028427;28;20424;-79
2021/12/10 02:19:30;;;;;;;9.50;7.77;;;-2.30;99.90;-3.10;95495.00;;;;5039669;28;20427;-78
2021/12/10 02:22:20;;;;;;;9.27;6.97;;;-1.10;99.90;-3.20;95500.00;;;;5041617;28;20466;-83
2021/12/10 02:25:10;;;;;;;9.70;7.43;;;-2.40;99.90;-3.10;95519.00;;;;5027018;28;20735;-78
2021/12/10 02:28:00;;;;;;;12.50;7.73;;;-0.60;99.90;-2.90;95499.00;;;;5029681;28;20931;-81
2021/12/10 02:30:49;;;;;;;9.47;7.17;;;-2.40;99.90;-3.00;95502.00;;;;5054995;28;20431;-78
2021/12/10 02:33:39;;;;;;;6.63;5.80;;;-2.40;99.90;-3.10;95497.00;;;;5054892;28;20432;-77
2021/12/10 02:36:28;;;;;;;7.77;5.87;;;-2.40;99.90;-3.30;95490.00;;;;5046426;28;20501;-79
2021/12/10 02:39:24;;;;;;;6.43;5.17;;;-2.50;99.90;-3.50;95484.00;;;;5028688;28;20430;-83
2021/12/10 02:42:13;;;;;;;6.30;4.30;;;-2.50;99.90;-3.70;95485.00;;;;5028318;28;20487;-79
2021/12/10 02:45:02;;;;;;;7.50;5.30;;;-2.60;99.90;-3.80;95479.00;;;;5029823;28;20447;-81
2021/12/10 02:47:52;;;;;;;5.13;3.63;;;-2.80;99.90;-4.00;95479.00;;;;5036438;28;20435;-81
2021/12/10 02:50:43;;;;;;;9.67;7.53;;;-2.90;99.90;-4.30;95466.00;;;;5047005;28;20438;-80
2021/12/10 02:53:41;;;;;;;4.90;3.93;;;-3.00;99.90;-4.20;95458.00;;;;5035440;28;20454;-79
2021/12/10 02:56:32;;;;;;;6.40;4.87;;;-2.30;99.90;-4.20;95461.00;;;;5064433;28;20900;-78
2021/12/10 02:59:21;;;;;;;4.23;3.43;;;-3.20;99.90;-4.20;95459.00;;;;5041383;28;20446;-78
2021/12/10 03:02:16;;;;;;;3.17;2.80;;;-3.20;99.90;-4.10;95459.00;;;;5055119;28;20466;-81
2021/12/10 03:05:08;;;;;;;6.73;5.33;;;-3.20;99.90;-4.00;95462.00;;;;5057560;28;20429;-81
2021/12/10 03:07:57;;;;;;;6.13;4.87;;;-3.20;99.90;-4.00;95461.00;;;;5053016;28;20427;-78
2021/12/10 03:10:47;;;;;;;4.80;4.07;;;-3.20;99.90;-4.20;95449.00;;;;5052809;28;20444;-78
2021/12/10 03:13:37;;;;;;;6.27;5.10;;;-3.30;99.90;-4.40;95460.00;;;;5047861;28;20450;-78
2021/12/10 03:16:27;;;;;;;3.80;3.50;;;-3.20;99.90;-4.40;95453.00;;;;5045056;28;20443;-79
2021/12/10 03:19:17;;;;;;;6.37;5.17;;;-3.40;99.90;-4.30;95472.00;;;;5037075;28;20440;-78
2021/12/10 03:22:07;;;;;;;5.03;4.47;;;-3.50;99.90;-4.40;95474.00;;;;5047949;28;20479;-81
2021/12/10 03:24:58;;;;;;;8.30;4.93;;;-3.50;99.90;-4.30;95466.00;;;;5038121;28;20454;-80
2021/12/10 03:27:48;;;;;;;2.20;1.97;;;-3.50;99.90;-4.50;95463.00;;;;5041844;28;20453;-79
2021/12/10 03:30:43;;;;;;;6.07;4.23;;;-3.60;99.90;-4.60;95465.00;;;;5035262;28;20443;-77
2021/12/10 03:33:33;;;;;;;4.13;3.60;;;-3.60;99.90;-4.80;95450.00;;;;5043013;28;20447;-78
2021/12/10 03:36:23;;;;;;;6.20;4.77;;;-3.70;99.90;-4.80;95467.00;;;;5043267;28;20420;-77
2021/12/10 03:39:13;;;;;;;4.23;3.13;;;-3.80;99.90;-4.70;95463.00;;;;5035125;28;20424;-76
2021/12/10 03:42:05;;;;;;;4.93;3.53;;;-3.70;99.90;-4.80;95460.00;;;;5041324;28;20858;-78
2021/12/10 03:44:54;;;;;;;5.70;4.10;;;-3.80;99.90;-4.50;95446.00;;;;5041149;28;20436;-78
2021/12/10 03:47:46;;;;;;;4.93;2.87;;;-3.80;99.90;-5.10;95452.00;;;;5034263;28;20429;-79
2021/12/10 03:50:38;;;;;;;4.93;4.40;;;-3.90;99.90;-5.20;95461.00;;;;5032293;28;20444;-80
2021/12/10 03:53:27;;;;;;;2.40;1.83;;;-4.00;99.90;-5.50;95453.00;;;;5030636;28;20513;-79
2021/12/10 03:56:19;;;;;;;3.43;3.03;;;-4.20;99.90;-5.10;95452.00;;;;5030752;28;20770;-78
2021/12/10 03:59:13;;;;;;;4.03;3.63;;;-4.20;99.90;-5.10;95443.00;;;;5047903;28;20467;-79
2021/12/10 04:02:03;;;;;;;2.63;2.30;;;-4.20;99.90;-5.40;95438.00;;;;5049195;28;20465;-77
2021/12/10 04:04:54;;;;;;;7.80;4.40;;;-4.20;99.90;-5.30;95441.00;;;;5039873;28;20428;-76
2021/12/10 04:07:43;;;;;;;2.90;2.70;;;-4.30;99.90;-5.50;95442.00;;;;5038802;28;20435;-75
2021/12/10 04:10:33;;;;;;;3.30;3.00;;;-4.30;99.90;-5.30;95444.00;;;;5049558;28;20416;-78
2021/12/10 04:13:23;;;;;;;3.23;2.97;;;-4.30;99.90;-5.20;95450.00;;;;5039306;28;20424;-78
2021/12/10 04:16:12;;;;;;;3.63;3.33;;;-4.30;99.90;-5.30;95446.00;;;;5040152;28;20810;-78
2021/12/10 04:19:05;;;;;;;3.70;2.63;;;-4.30;99.90;-5.40;95448.00;;;;5044587;28;20439;-77
2021/12/10 04:21:58;;;;;;;4.30;2.97;;;-4.30;99.90;-5.20;95449.00;;;;5049164;28;20839;-79
2021/12/10 04:24:48;;;;;;;2.53;2.33;;;-4.30;99.90;-5.20;95453.00;;;;5041057;28;20435;-79
2021/12/10 04:27:37;;;;;;;2.83;2.50;;;-4.30;99.90;-5.40;95440.00;;;;5038627;28;20448;-78
2021/12/10 04:30:27;;;;;;;4.53;3.10;;;-4.20;99.90;-5.50;95446.00;;;;5038462;28;20449;-75
2021/12/10 04:33:25;;;;;;;2.63;2.17;;;-4.40;99.90;-5.60;95449.00;;;;5039198;28;20882;-76
2021/12/10 04:36:14;;;;;;;2.43;1.93;;;-4.50;99.90;-5.70;95459.00;;;;5032087;28;20433;-77
2021/12/10 04:39:06;;;;;;;2.07;1.97;;;-4.50;99.90;-5.90;95450.00;;;;5033884;28;20432;-76
2021/12/10 04:41:55;;;;;;;3.37;2.67;;;-4.60;99.90;-5.60;95460.00;;;;5037964;28;20827;-79
2021/12/10 04:44:44;;;;;;;1.57;1.47;;;-4.60;99.90;-5.80;95450.00;;;;5041295;28;20431;-79
2021/12/10 04:47:34;;;;;;;2.73;2.53;;;-4.60;99.90;-5.60;95450.00;;;;5050562;28;20427;-77
2021/12/10 04:50:27;;;;;;;2.30;2.00;;;-4.70;99.90;-5.90;95442.00;;;;5034264;28;20947;-78
2021/12/10 04:53:16;;;;;;;1.47;1.20;;;-4.70;99.90;-6.10;95443.00;;;;5032237;28;20951;-77
2021/12/10 04:56:07;;;;;;;1.30;1.30;;;-4.80;99.90;-6.50;95445.00;;;;5034144;28;20955;-80
2021/12/10 04:58:56;;;;;;;2.10;2.00;;;-4.90;99.90;-6.20;95450.00;;;;5045588;28;20439;-78
2021/12/10 05:01:46;;;;;;;2.20;1.97;;;-5.10;99.90;-6.00;95454.00;;;;5042263;28;20484;-79
2021/12/10 05:04:37;;;;;;;3.33;2.23;;;-5.10;99.90;-6.30;95444.00;;;;5057018;28;20430;-79
2021/12/10 05:07:30;;;;;;;2.43;2.23;;;-5.10;99.90;-6.20;95450.00;;;;5042652;28;20421;-77
2021/12/10 05:10:19;;;;;;;3.03;2.43;;;-5.10;99.90;-6.10;95451.00;;;;5037413;28;20427;-77
2021/12/10 05:13:10;;;;;;;2.67;2.37;;;-5.10;99.90;-5.90;95444.00;;;;5033324;28;20799;-76
2021/12/10 05:15:59;;;;;;;2.87;2.67;;;-5.10;99.90;-6.30;95452.00;;;;5034895;28;20814;-75
2021/12/10 05:18:55;;;;;;;2.37;2.17;;;-5.10;99.90;-6.60;95448.00;;;;5033264;28;21294;-75
2021/12/10 05:21:48;;;;;;;2.07;1.87;;;-5.30;99.90;-6.70;95441.00;;;;5026474;28;20472;-75
2021/12/10 05:24:38;;;;;;;2.97;2.67;;;-5.40;99.90;-6.60;95439.00;;;;5042785;28;20427;-75
2021/12/10 05:27:26;;;;;;;3.53;2.97;;;-5.40;99.90;-6.30;95441.00;;;;5026220;28;20447;-74
2021/12/10 05:30:22;;;;;;;3.05;2.58;;;-5.40;99.90;-6.20;95432.00;;;;5046365;28;20435;-77
2021/12/10 05:33:16;;;;;;;1.63;1.60;;;-5.00;99.90;-6.80;95433.00;;;;5043427;28;20213;-74
2021/12/10 05:36:07;;;;;;;2.30;2.20;;;-5.30;99.90;-7.10;95435.00;;;;5046229;28;20448;-74
2021/12/10 05:38:56;;;;;;;3.40;2.47;;;-5.20;99.90;-6.80;95442.00;;;;5045827;28;20434;-81
2021/12/10 05:41:45;;;;;;;2.47;1.70;;;-5.60;99.90;-6.90;95428.00;;;;5047223;28;20225;-76
2021/12/10 05:44:34;;;;;;;2.45;2.20;;;-5.60;99.90;-6.80;95433.00;;;;5047682;28;20423;-76
2021/12/10 05:47:24;;;;;;;2.57;2.37;;;-5.60;99.90;-6.40;95439.00;;;;5033998;28;20198;-75
2021/12/10 05:50:18;;;;;;;3.63;2.00;;;-5.60;99.90;-6.10;95434.00;;;;5025096;28;20437;-75
2021/12/10 05:53:07;;;;;;;3.08;2.58;;;-5.40;99.90;-6.10;95430.00;;;;5029812;28;20455;-73
2021/12/10 05:55:57;;;;;;;3.23;2.67;;;-5.30;99.90;-6.00;95433.00;;;;5034078;28;20194;-77
2021/12/10 05:58:46;;;;;;;2.07;1.90;;;-5.10;99.90;-6.00;95429.00;;;;5027655;28;20490;-73
2021/12/10 06:01:36;;;;;;;2.50;2.30;;;-5.10;99.90;-6.00;95418.00;;;;5041031;28;20452;-77
2021/12/10 06:04:27;;;;;;;3.33;2.97;;;-5.10;99.90;-5.90;95416.00;;;;5038078;28;20980;-78
2021/12/10 06:07:16;;;;;;;4.60;3.03;;;-5.00;99.90;-5.80;95415.00;;;;5036844;28;20430;-77
2021/12/10 06:10:07;;;;;;;3.90;2.47;;;-4.70;99.90;-6.00;95417.00;;;;5026591;28;20428;-77
2021/12/10 06:12:56;;;;;;;5.80;4.50;;;-5.00;99.90;-6.50;95410.00;;;;5038884;28;20439;-77
2021/12/10 06:15:45;;;;;;;4.93;4.30;;;-5.10;99.90;-6.80;95408.00;;;;5047186;28;20435;-78
2021/12/10 06:18:34;;;;;;;2.93;2.67;;;-5.30;99.90;-6.70;95415.00;;;;5035954;28;20431;-76
2021/12/10 06:21:25;;;;;;;3.00;1.67;;;-5.40;99.90;-6.70;95409.00;;;;5044707;28;20541;-76
2021/12/10 06:24:14;;;;;;;4.17;3.47;;;-5.50;99.90;-6.50;95405.00;;;;5046968;28;20851;-78
2021/12/10 06:27:04;;;;;;;2.30;2.10;;;-5.50;99.90;-6.30;95418.00;;;;5043971;28;20434;-77
2021/12/10 06:29:53;;;;;;;2.17;1.97;;;-5.50;99.90;-6.20;95418.00;;;;5050453;28;20435;-78
2021/12/10 06:32:44;;;;;;;2.13;1.70;;;-5.40;99.90;-6.30;95418.00;;;;5045462;28;20474;-76
2021/12/10 06:35:36;;;;;;;1.73;1.63;;;-5.30;99.90;-6.70;95407.00;;;;5043686;28;20428;-76
2021/12/10 06:38:27;;;;;;;1.60;1.50;;;-5.40;99.90;-6.90;95405.00;;;;5038346;28;20424;-76
2021/12/10 06:41:17;;;;;;;1.80;1.70;;;-5.50;99.90;-6.90;95406.00;;;;5037988;28;20239;-75
2021/12/10 06:44:06;;;;;;;0.90;0.90;;;-5.60;99.90;-6.70;95412.00;;;;5039252;28;20239;-78
2021/12/10 06:46:55;;;;;;;3.15;2.17;;;-5.60;99.90;-6.70;95413.00;;;;5043800;28;20200;-76
2021/12/10 06:49:44;;;;;;;2.05;1.88;;;-5.60;99.90;-6.90;95419.00;;;;5029570;28;20209;-79
2021/12/10 06:52:33;;;;;;;2.20;2.00;;;-5.70;99.90;-7.20;95424.00;;;;5032425;28;20628;-74
2021/12/10 06:55:27;;;;;;;1.40;1.30;;;-5.80;99.90;-7.00;95428.00;;;;5027109;28;20212;-75
2021/12/10 06:58:17;;;;;;;1.80;1.70;;;-5.80;99.90;-6.80;95437.00;;;;5037207;28;20680;-74
2021/12/10 07:01:12;;;;;;;2.05;1.95;;;-5.80;99.90;-7.00;95431.00;;;;5056577;28;20234;-73
2021/12/10 07:04:04;;;;;;;1.70;1.60;;;-5.80;99.90;-7.50;95420.00;;;;5036933;28;20278;-76
2021/12/10 07:06:55;;;;;;;3.45;1.65;;;-6.00;99.90;-7.50;95414.00;;;;5034211;28;20430;-77
2021/12/10 07:09:44;;;;;;;1.95;1.85;;;-6.10;99.90;-7.30;95412.00;;;;5036841;28;20208;-77
2021/12/10 07:12:35;;;;;;;1.23;1.23;;;-6.10;99.90;-7.40;95404.00;;;;5042001;28;20235;-77
2021/12/10 07:15:25;;;;;;;3.35;2.35;;;-6.00;99.90;-8.00;95403.00;;;;5046670;28;20219;-75
2021/12/10 07:18:14;;;;;;;1.20;1.10;;;-6.40;99.90;-7.80;95396.00;;;;5043097;28;20209;-75
2021/12/10 07:21:03;;;;;;;1.73;1.60;;;-6.40;99.90;-7.30;95406.00;;;;5046035;28;20228;-76
2021/12/10 07:23:52;;;;;;;0.90;0.90;;;-6.20;99.90;-7.40;95407.00;;;;5052230;28;20232;-74
2021/12/10 07:26:42;;;;;;;1.58;1.52;;;-6.30;99.90;-7.60;95396.00;;;;5051640;28;20210;-75
2021/12/10 07:29:32;;;;;;;1.77;1.67;;;-6.30;99.90;-7.40;95390.00;;;;5043945;28;20235;-73
2021/12/10 07:32:21;;;;;;;1.38;1.27;;;-6.30;99.90;-7.70;95392.00;;;;5048120;28;20543;-75
2021/12/10 07:35:11;;;;;;;2.30;1.58;;;-6.30;99.90;-7.10;95400.00;;;;5047785;28;20196;-76
2021/12/10 07:38:00;;;;;;;2.88;2.28;;;-6.20;99.90;-7.00;95389.00;;;;5049711;28;20197;-75
2021/12/10 07:40:50;;;;;;;1.20;1.20;;;-5.90;99.90;-7.60;95386.00;;;;5050607;28;20196;-75
2021/12/10 07:43:40;;;;;;;1.10;1.10;;;-6.10;99.90;-7.50;95377.00;;;;5051789;28;20233;-75
2021/12/10 07:46:32;;;;;;;2.28;2.10;;;-6.00;99.90;-7.20;95380.00;;;;5046804;28;20209;-76
2021/12/10 07:49:28;;;;;;;1.30;1.20;;;-6.20;99.90;-7.20;95384.00;;;;5030948;28;20501;-76
2021/12/10 07:52:23;;;;;;;1.85;1.75;;;-6.10;99.90;-7.30;95365.00;;;;5025713;28;20237;-74
2021/12/10 07:55:16;;;;;;;1.30;1.23;;;-6.10;99.90;-7.70;95363.00;;;;5045622;28;20224;-74
2021/12/10 07:58:07;;;;;;;2.13;1.95;;;-6.20;99.90;-7.20;95360.00;;;;5054965;28;20686;-76
2021/12/10 08:00:57;;;;;;;1.33;1.27;;;-6.20;99.90;-7.10;95349.00;;;;5057409;28;20192;-75
2021/12/10 08:03:48;;;;;;;1.05;1.05;;;-6.10;99.90;-6.80;95361.00;;;;5041549;28;20321;-73
2021/12/10 08:06:38;;;;;;;2.03;1.83;;;-6.10;99.90;-6.90;95354.00;;;;5034398;28;20242;-77
2021/12/10 08:09:27;;;;;;;2.35;2.25;;;-6.00;99.90;-6.70;95370.00;;;;5034858;28;20197;-75
2021/12/10 08:12:16;;;;;;;0.90;0.90;;;-5.90;99.90;-7.00;95366.00;;;;5035459;28;20229;-76
2021/12/10 08:15:07;;;;;;;2.00;1.80;;;-5.80;99.90;-7.10;95360.00;;;;5037713;28;20687;-78
2021/12/10 08:17:56;;;;;;;1.60;1.50;;;-5.90;99.90;-7.20;95359.00;;;;5039543;28;20424;-78
2021/12/10 08:20:46;;;;;;;1.83;1.73;;;-6.00;99.90;-7.00;95348.00;;;;5035344;28;20432;-75
2021/12/10 08:23:37;;;;;;;2.50;2.30;;;-6.00;99.90;-6.70;95354.00;;;;5035161;28;20455;-75
2021/12/10 08:26:26;;;;;;;1.83;1.73;;;-5.90;99.90;-6.00;95351.00;;;;5041056;28;20428;-75
2021/12/10 08:29:19;;;;;;;2.43;2.23;;;-5.70;99.90;-5.90;95353.00;;;;5027656;28;20423;-77
2021/12/10 08:32:12;;;;;;;2.13;1.93;;;-5.60;99.90;-5.90;95344.00;;;;5035035;28;20771;-75
2021/12/10 08:35:04;;;;;;;1.70;1.70;;;-5.30;99.90;-6.10;95339.00;;;;5040868;28;20468;-73
2021/12/10 08:37:55;;;;;;;1.70;1.60;;;-5.20;99.90;-5.80;95331.00;;;;5066975;28;20534;-72
2021/12/10 08:40:47;;;;;;;2.73;1.97;;;-5.10;99.90;-5.60;95339.00;;;;5067853;28;20430;-78
2021/12/10 08:43:37;;;;;;;2.80;2.30;;;-5.00;99.90;-5.90;95326.00;;;;5048264;28;20466;-78
2021/12/10 08:46:28;;;;;;;2.30;2.10;;;-5.00;99.90;-5.20;95322.00;;;;5054420;28;20526;-78
2021/12/10 08:49:18;;;;;;;2.67;2.47;;;-4.80;99.90;-4.80;95331.00;;;;5042886;28;20450;-75
2021/12/10 08:52:08;;;;;;;2.63;2.40;;;-4.60;99.90;-4.80;95320.00;;;;5041360;28;20821;-75
2021/12/10 08:54:59;;;;;;;4.07;3.13;;;-4.40;99.90;-4.60;95320.00;;;;5037266;28;20424;-74
2021/12/10 08:57:48;;;;;;;2.83;2.37;;;-4.30;99.90;-4.30;95320.00;;;;5047946;28;20435;-75
2021/12/10 09:00:40;;;;;;;3.60;2.70;;;-4.10;99.90;-4.00;95327.00;;;;5047774;28;20442;-76
2021/12/10 09:03:28;;;;;;;4.37;2.97;;;-3.90;99.90;-4.00;95321.00;;;;5030643;28;20471;-75
2021/12/10 09:06:21;;;;;;;3.07;2.67;;;-3.70;99.90;-4.00;95319.00;;;;5055195;28;20431;-74
2021/12/10 09:09:13;;;;;;;2.50;2.30;;;-3.60;99.90;-3.90;95317.00;;;;5046918;28;20427;-75
2021/12/10 09:12:10;;;;;;;2.63;2.43;;;-3.40;99.90;-3.40;95318.00;;;;5045413;28;21022;-75
2021/12/10 09:15:01;;;;;;;2.50;2.30;;;-3.20;99.90;-3.30;95311.00;;;;5043359;28;20946;-76
2021/12/10 09:17:52;;;;;;;2.73;2.53;;;-3.10;99.90;-3.10;95302.00;;;;5040089;28;20427;-74
2021/12/10 09:20:45;;;;;;;3.43;3.13;;;-2.90;99.90;-3.10;95303.00;;;;5043347;28;20439;-76
2021/12/10 09:23:34;;;;;;;4.63;3.73;;;-2.80;99.90;-3.00;95296.00;;;;5044620;28;20432;-74
2021/12/10 09:26:27;;;;;;;4.80;3.50;;;-2.60;99.90;-3.00;95300.00;;;;5038161;28;20443;-75
2021/12/10 09:29:18;;;;;;;5.27;3.80;;;-2.50;99.90;-3.10;95293.00;;;;5044158;28;20975;-78
2021/12/10 09:32:11;;;;;;;23.07;20.50;;;-2.40;99.90;-3.20;95284.00;;;;5047741;28;20435;-78
2021/12/10 09:35:05;;;;;;;6.90;4.33;;;-2.40;99.90;-3.10;95280.00;;;;5048012;28;20863;-78
2021/12/10 09:37:56;;;;;;;3.63;3.33;;;-2.40;99.90;-2.80;95281.00;;;;5053509;28;20431;-76
2021/12/10 09:40:52;;;;;;;5.03;4.17;;;-2.40;99.90;-2.70;95280.00;;;;5043290;28;20455;-80
2021/12/10 09:43:41;;;;;;;6.70;5.23;;;-2.40;99.90;-1.80;95293.00;;;;5030280;28;20431;-78
2021/12/10 09:46:32;;;;;;;8.47;5.83;;;-2.20;99.90;-1.40;95304.00;;;;5031321;28;20433;-79
2021/12/10 09:49:23;;;;;;;7.20;5.90;;;-1.90;99.90;-1.10;95297.00;;;;5042463;28;20972;-76
2021/12/10 09:52:13;;;;;;;12.57;6.10;;;-1.60;99.90;-0.60;95305.00;;;;5041371;28;20451;-77
2021/12/10 09:55:02;;;;;;;11.10;7.43;;;-1.30;99.90;-0.70;95306.00;;;;5029737;28;20432;-79
2021/12/10 09:57:53;;;;;;;10.73;7.47;;;-1.00;99.90;-0.80;95300.00;;;;5035029;28;20428;-76
2021/12/10 10:00:49;;;;;;;11.73;8.23;;;-0.90;99.90;-0.70;95293.00;;;;5043694;28;20443;-78
2021/12/10 10:03:43;;;;;;;12.03;8.33;;;-0.70;99.90;-0.50;95289.00;;;;5040085;28;20429;-76
2021/12/10 10:06:36;;;;;;;9.33;7.03;;;-0.60;99.90;-0.40;95285.00;;;;5042951;28;20432;-78
2021/12/10 10:09:29;;;;;;;13.10;7.97;;;-0.50;99.90;-0.30;95277.00;;;;5037993;28;20439;-77
2021/12/10 10:12:23;;;;;;;12.10;7.87;;;-0.40;99.90;0.20;95283.00;;;;5049229;28;20953;-76
2021/12/10 10:15:18;;;;;;;11.73;7.97;;;-0.20;99.90;0.90;95289.00;;;;5047861;28;20454;-75
2021/12/10 10:18:14;;;;;;;15.80;7.77;;;0.20;99.90;-0.20;95277.00;;;;5042085;28;20513;-76
2021/12/10 10:21:10;;;;;;;11.33;7.47;;;0.30;99.90;-0.70;95272.00;;;;5046396;28;20973;-77
2021/12/10 10:23:59;;;;;;;9.73;6.83;;;0.20;99.90;-0.70;95261.00;;;;5036257;28;20447;-77
2021/12/10 10:26:55;;;;;;;10.50;8.17;;;0.00;99.90;-0.50;95273.00;;;;5046039;28;20423;-79
2021/12/10 10:29:52;;;;;;;14.27;7.27;;;-0.10;99.90;-0.20;95255.00;;;;5030669;28;20425;-77
2021/12/10 10:32:45;;;;;;;9.73;6.77;;;0.00;99.90;-0.20;95257.00;;;;5029629;28;20448;-78
2021/12/10 10:35:38;;;;;;;11.90;8.23;;;0.10;99.90;-0.10;95261.00;;;;5046263;28;20426;-75
2021/12/10 10:38:30;;;;;;;14.80;8.63;;;0.10;99.90;0.30;95251.00;;;;5027016;28;20499;-75
2021/12/10 10:41:25;;;;;;;23.17;11.23;;;0.20;99.90;0.40;95258.00;;;;5029434;28;20982;-75
2021/12/10 10:44:15;;;;;;;17.90;11.00;;;0.40;99.90;0.60;95256.00;;;;5044393;28;20433;-78
2021/12/10 10:47:05;;;;;;;18.80;10.83;;;0.40;99.90;0.70;95259.00;;;;5045705;28;20441;-79
2021/12/10 10:49:58;;;;;;;18.27;12.00;;;0.50;99.90;0.50;95268.00;;;;5042022;28;20898;-80
2021/12/10 10:52:50;;;;;;;21.20;11.67;;;0.60;99.90;0.70;95262.00;;;;5042885;28;20451;-78
2021/12/10 10:55:51;;;;;;;23.40;12.77;;;0.60;99.90;0.70;95254.00;;;;5044891;28;20430;-79
2021/12/10 10:58:46;;;;;;;24.10;12.80;;;0.60;99.90;0.90;95252.00;;;;5045730;28;20737;-80
2021/12/10 11:01:40;;;;;;;25.97;13.70;;;0.70;99.90;1.40;95249.00;;;;5038841;28;20444;-79
2021/12/10 11:04:33;;;;;;;23.27;12.90;;;1.00;99.90;1.60;95256.00;;;;5041237;28;20837;-77
2021/12/10 11:07:25;;;;;;;17.10;11.00;;;2.60;99.90;1.80;95255.00;;;;5047310;28;20521;-80
2021/12/10 11:10:25;;;;;;;21.43;12.83;;;1.40;99.90;1.60;95249.00;;;;5044567;28;20446;-80
2021/12/10 11:13:21;;;;;;;23.17;14.77;;;1.50;99.90;1.40;95243.00;;;;5050398;28;20441;-78
2021/12/10 11:16:14;;;;;;;26.43;15.23;;;1.40;99.90;1.50;95233.00;;;;5047027;28;20859;-79
2021/12/10 11:19:07;;;;;;;21.27;12.10;;;1.50;99.90;1.80;95235.00;;;;5047769;28;20427;-79
2021/12/10 11:22:01;;;;;;;21.77;13.87;;;1.60;99.90;1.50;95235.00;;;;5041564;28;20467;-80
2021/12/10 11:24:55;;;;;;;22.83;13.03;;;1.60;99.90;1.90;95210.00;;;;5049735;28;20460;-80
2021/12/10 11:27:45;;;;;;;21.47;11.17;;;2.40;99.90;2.00;95217.00;;;;5044984;28;20848;-76
2021/12/10 11:30:40;;;;;;;21.63;12.80;;;1.60;99.90;1.80;95213.00;;;;5042183;28;20451;-79
2021/12/10 11:33:34;;;;;;;20.63;12.70;;;1.70;99.90;1.60;95205.00;;;;5046904;28;20811;-76
2021/12/10 11:36:27;;;;;;;16.90;11.13;;;1.70;99.90;1.80;95209.00;;;;5040822;28;20818;-76
2021/12/10 11:39:16;;;;;;;16.30;9.60;;;1.70;99.90;1.40;95195.00;;;;5046784;28;20750;-77
2021/12/10 11:42:42;;;;;;;15.33;11.13;;;0.80;99.90;1.50;95192.00;;;;5050356;28;20539;-78
2021/12/10 11:45:42;;;;;;;20.73;12.07;;;1.60;99.90;1.60;95194.00;;;;5041424;28;20466;-81
2021/12/10 11:48:34;;;;;;;19.57;11.60;;;1.60;99.90;1.40;95182.00;;;;5039072;28;20846;-80
2021/12/10 11:51:31;;;;;;;21.17;11.97;;;1.60;99.90;1.40;95173.00;;;;5041601;28;20440;-81
2021/12/10 11:54:27;;;;;;;27.57;13.53;;;1.60;99.90;1.40;95183.00;;;;5042141;28;20424;-81
2021/12/10 11:57:22;;;;;;;38.53;14.30;;;1.60;99.90;1.00;95185.00;;;;5041605;28;20417;-77
2021/12/10 12:00:18;;;;;;;21.27;13.50;;;1.40;99.90;0.80;95182.00;;;;5039416;28;20420;-77
2021/12/10 12:03:09;;;;;;;26.13;13.30;;;1.20;99.90;0.70;95182.00;;;;5032447;28;20431;-77
2021/12/10 12:05:59;;;;;;;28.13;12.90;;;1.10;99.90;0.80;95177.00;;;;5044240;28;20888;-78
2021/12/10 12:08:49;;;;;;;26.83;15.07;;;1.10;99.90;1.10;95173.00;;;;5048043;28;20789;-77
2021/12/10 12:11:38;;;;;;;24.13;13.63;;;1.10;99.90;1.40;95174.00;;;;5037488;28;20808;-77
2021/12/10 12:14:29;;;;;;;19.93;12.43;;;1.20;99.90;1.10;95180.00;;;;5030997;28;20440;-78
2021/12/10 12:17:35;;;;;;;22.70;12.53;;;1.20;99.90;0.70;95168.00;;;;5043679;28;20805;-76
2021/12/10 12:20:46;;;;;;;23.37;12.73;;;1.10;99.90;0.70;95166.00;;;;5043496;28;20451;-81
2021/12/10 12:26:44;;;;;;;33.50;16.80;;;0.90;99.90;0.70;95156.00;;;;5044895;28;20474;-79
2021/12/10 12:29:37;;;;;;;30.30;16.90;;;0.90;99.90;0.60;95158.00;;;;5034939;28;20800;-78
2021/12/10 12:32:31;;;;;;;28.10;16.77;;;0.90;99.90;0.50;95160.00;;;;5035836;28;20440;-78
2021/12/10 12:35:25;;;;;;;25.20;15.87;;;0.80;99.90;0.40;95167.00;;;;5039043;28;20419;-79
2021/12/10 12:38:21;;;;;;;29.23;17.20;;;0.70;99.90;-0.40;95158.00;;;;5047386;28;20423;-78
2021/12/10 12:41:18;;;;;;;32.50;16.50;;;0.50;99.90;-0.50;95149.00;;;;5044986;28;20450;-78
2021/12/10 12:44:30;;;;;;;29.33;16.93;;;0.30;99.90;-0.40;95153.00;;;;5044682;28;20434;-81
2021/12/10 12:47:21;;;;;;;40.20;17.27;;;0.10;99.90;-0.20;95143.00;;;;5042156;28;20468;-77
2021/12/10 12:50:13;;;;;;;32.87;17.50;;;0.00;99.90;-0.20;95136.00;;;;5048108;28;20436;-75
2021/12/10 12:53:08;;;;;;;30.03;16.27;;;0.00;99.90;0.00;95125.00;;;;5042384;28;20666;-77